createdAt,value
2023-03-10T00:00:35.357Z,979.43
2023-03-10T00:01:34.774Z,979.44
2023-03-10T00:02:34.959Z,979.40
2023-03-10T00:03:36.319Z,979.36
2023-03-10T00:04:36.412Z,979.47
2023-03-10T00:05:35.680Z,979.43
2023-03-10T00:06:35.784Z,979.31
2023-03-10T00:07:37.815Z,979.37
2023-03-10T00:08:36.387Z,979.37
2023-03-10T00:09:36.469Z,979.32
2023-03-10T00:10:36.642Z,979.27
2023-03-10T00:11:36.834Z,979.29
2023-03-10T00:12:37.814Z,979.31
2023-03-10T00:13:37.240Z,979.26
2023-03-10T00:14:37.455Z,979.20
2023-03-10T00:15:37.722Z,979.17
2023-03-10T00:16:37.805Z,979.25
2023-03-10T00:17:37.993Z,979.25
2023-03-10T00:18:38.164Z,979.09
2023-03-10T00:19:38.353Z,979.18
2023-03-10T00:20:39.325Z,979.09
2023-03-10T00:21:38.796Z,979.18
2023-03-10T00:22:38.834Z,979.15
2023-03-10T00:23:39.870Z,979.06
2023-03-10T00:24:39.132Z,979.13
2023-03-10T00:25:39.880Z,979.09
2023-03-10T00:26:40.328Z,979.00
2023-03-10T00:27:39.591Z,978.98
2023-03-10T00:28:39.782Z,979.00
2023-03-10T00:29:39.957Z,978.89
2023-03-10T00:30:40.126Z,978.91
2023-03-10T00:31:40.366Z,978.94
2023-03-10T00:32:41.984Z,978.93
2023-03-10T00:33:41.324Z,978.92
2023-03-10T00:34:40.820Z,978.89
2023-03-10T00:35:41.105Z,978.92
2023-03-10T00:36:41.817Z,978.89
2023-03-10T00:37:41.356Z,978.82
2023-03-10T00:38:42.838Z,978.76
2023-03-10T00:39:41.748Z,978.77
2023-03-10T00:40:42.881Z,978.71
2023-03-10T00:41:42.817Z,978.70
2023-03-10T00:42:43.818Z,978.73
2023-03-10T00:43:43.184Z,978.70
2023-03-10T00:44:42.719Z,978.66
2023-03-10T00:45:43.820Z,978.64
2023-03-10T00:46:43.121Z,978.69
2023-03-10T00:47:44.195Z,978.63
2023-03-10T00:48:44.360Z,978.60
2023-03-10T00:49:43.478Z,978.49
2023-03-10T00:50:43.603Z,978.54
2023-03-10T00:51:44.840Z,978.50
2023-03-10T00:52:44.824Z,978.46
2023-03-10T00:53:44.844Z,978.44
2023-03-10T00:54:44.234Z,978.48
2023-03-10T00:55:45.398Z,978.52
2023-03-10T00:56:45.408Z,978.42
2023-03-10T00:57:44.656Z,978.46
2023-03-10T00:58:44.834Z,978.47
2023-03-10T00:59:50.326Z,978.41
2023-03-10T01:00:47.828Z,978.39
2023-03-10T01:01:45.390Z,978.41
2023-03-10T01:02:45.511Z,978.45
2023-03-10T01:03:46.331Z,978.38
2023-03-10T01:04:46.460Z,978.36
2023-03-10T01:05:46.005Z,978.40
2023-03-10T01:06:47.150Z,978.31
2023-03-10T01:07:46.270Z,978.47
2023-03-10T01:08:47.827Z,978.39
2023-03-10T01:09:46.580Z,978.33
2023-03-10T01:10:48.191Z,978.37
2023-03-10T01:11:47.830Z,978.24
2023-03-10T01:12:47.089Z,978.31
2023-03-10T01:13:47.307Z,978.33
2023-03-10T01:14:47.464Z,978.33
2023-03-10T01:15:47.890Z,978.28
2023-03-10T01:16:47.746Z,978.24
2023-03-10T01:17:47.921Z,978.20
2023-03-10T01:18:48.081Z,978.11
2023-03-10T01:19:48.224Z,978.09
2023-03-10T01:20:48.391Z,978.12
2023-03-10T01:21:49.328Z,978.15
2023-03-10T01:22:48.698Z,978.11
2023-03-10T01:23:48.853Z,977.98
2023-03-10T01:24:49.007Z,978.08
2023-03-10T01:25:49.193Z,978.02
2023-03-10T01:26:49.347Z,978.11
2023-03-10T01:27:49.501Z,978.15
2023-03-10T01:28:49.679Z,978.08
2023-03-10T01:29:49.912Z,978.09
2023-03-10T01:30:49.948Z,978.02
2023-03-10T01:31:50.170Z,978.18
2023-03-10T01:32:52.391Z,978.13
2023-03-10T01:33:50.524Z,978.15
2023-03-10T01:34:50.723Z,978.05
2023-03-10T01:35:51.006Z,978.10
2023-03-10T01:36:51.874Z,978.12
2023-03-10T01:37:51.889Z,977.96
2023-03-10T01:38:52.346Z,978.00
2023-03-10T01:39:51.918Z,977.84
2023-03-10T01:40:51.758Z,977.85
2023-03-10T01:41:51.933Z,977.81
2023-03-10T01:42:53.331Z,977.93
2023-03-10T01:43:52.889Z,977.92
2023-03-10T01:44:52.956Z,977.96
2023-03-10T01:45:53.337Z,978.00
2023-03-10T01:46:53.160Z,977.88
2023-03-10T01:47:53.166Z,977.88
2023-03-10T01:48:53.321Z,977.92
2023-03-10T01:49:53.517Z,977.86
2023-03-10T01:50:54.391Z,977.95
2023-03-10T01:51:54.909Z,977.81
2023-03-10T01:52:54.146Z,977.90
2023-03-10T01:53:55.301Z,977.90
2023-03-10T01:54:56.341Z,977.85
2023-03-10T01:55:55.339Z,977.82
2023-03-10T01:56:56.338Z,977.87
2023-03-10T01:57:55.702Z,977.90
2023-03-10T01:58:55.113Z,977.93
2023-03-10T01:59:55.411Z,977.91
2023-03-10T02:00:56.453Z,977.86
2023-03-10T02:01:55.701Z,977.88
2023-03-10T02:02:56.344Z,977.90
2023-03-10T02:03:57.792Z,977.84
2023-03-10T02:04:56.410Z,977.89
2023-03-10T02:05:57.846Z,977.88
2023-03-10T02:06:57.396Z,977.81
2023-03-10T02:07:57.412Z,977.87
2023-03-10T02:08:58.216Z,977.90
2023-03-10T02:09:57.894Z,977.85
2023-03-10T02:10:57.233Z,977.92
2023-03-10T02:11:57.839Z,977.94
2023-03-10T02:12:57.461Z,977.95
2023-03-10T02:13:57.639Z,977.98
2023-03-10T02:14:57.778Z,978.06
2023-03-10T02:15:58.939Z,978.00
2023-03-10T02:16:58.390Z,978.14
2023-03-10T02:18:00.462Z,978.13
2023-03-10T02:18:58.590Z,977.99
2023-03-10T02:19:58.795Z,978.07
2023-03-10T02:20:59.888Z,978.11
2023-03-10T02:21:59.415Z,978.11
2023-03-10T02:23:01.844Z,978.10
2023-03-10T02:24:01.657Z,978.13
2023-03-10T02:25:01.358Z,978.15
2023-03-10T02:25:59.871Z,978.21
2023-03-10T02:27:00.411Z,978.16
2023-03-10T02:28:00.261Z,978.19
2023-03-10T02:29:00.908Z,978.11
2023-03-10T02:30:00.933Z,978.11
2023-03-10T02:31:00.618Z,978.10
2023-03-10T02:32:00.875Z,978.04
2023-03-10T02:33:01.900Z,978.04
2023-03-10T02:34:01.927Z,978.06
2023-03-10T02:35:01.908Z,978.05
2023-03-10T02:36:02.431Z,977.92
2023-03-10T02:37:03.416Z,977.98
2023-03-10T02:38:01.974Z,978.09
2023-03-10T02:39:02.904Z,978.04
2023-03-10T02:40:02.338Z,978.03
2023-03-10T02:41:02.521Z,977.98
2023-03-10T02:42:03.362Z,978.00
2023-03-10T02:43:02.902Z,978.09
2023-03-10T02:44:03.077Z,978.06
2023-03-10T02:45:03.290Z,978.00
2023-03-10T02:46:04.393Z,978.06
2023-03-10T02:47:03.705Z,978.09
2023-03-10T02:48:03.878Z,978.14
2023-03-10T02:49:04.091Z,978.08
2023-03-10T02:50:05.856Z,978.05
2023-03-10T02:51:05.419Z,978.08
2023-03-10T02:52:04.729Z,978.08
2023-03-10T02:53:04.993Z,978.15
2023-03-10T02:54:05.081Z,978.12
2023-03-10T02:55:05.207Z,978.05
2023-03-10T02:56:05.461Z,978.20
2023-03-10T02:57:05.647Z,978.14
2023-03-10T02:58:06.723Z,978.24
2023-03-10T02:59:06.075Z,978.18
2023-03-10T03:00:06.264Z,978.23
2023-03-10T03:01:07.468Z,978.26
2023-03-10T03:02:06.664Z,978.21
2023-03-10T03:03:06.879Z,978.14
2023-03-10T03:04:07.176Z,978.16
2023-03-10T03:05:08.228Z,978.18
2023-03-10T03:06:07.514Z,978.21
2023-03-10T03:07:07.719Z,978.11
2023-03-10T03:08:08.405Z,978.11
2023-03-10T03:09:08.096Z,978.17
2023-03-10T03:10:08.281Z,978.14
2023-03-10T03:11:08.457Z,978.16
2023-03-10T03:12:08.615Z,978.24
2023-03-10T03:13:08.800Z,978.24
2023-03-10T03:14:08.949Z,978.18
2023-03-10T03:15:09.083Z,978.20
2023-03-10T03:16:09.260Z,978.22
2023-03-10T03:17:09.457Z,978.20
2023-03-10T03:18:09.619Z,978.27
2023-03-10T03:19:09.782Z,978.18
2023-03-10T03:20:09.989Z,978.14
2023-03-10T03:21:10.913Z,978.12
2023-03-10T03:22:10.278Z,978.16
2023-03-10T03:23:11.415Z,978.12
2023-03-10T03:24:10.714Z,978.09
2023-03-10T03:25:10.880Z,978.15
2023-03-10T03:26:11.903Z,978.21
2023-03-10T03:27:11.183Z,978.14
2023-03-10T03:28:11.352Z,978.20
2023-03-10T03:29:11.490Z,978.13
2023-03-10T03:30:11.730Z,978.28
2023-03-10T03:31:12.419Z,978.30
2023-03-10T03:32:12.178Z,978.40
2023-03-10T03:33:12.245Z,978.31
2023-03-10T03:34:12.419Z,978.25
2023-03-10T03:35:14.366Z,978.29
2023-03-10T03:36:13.394Z,978.31
2023-03-10T03:37:12.886Z,978.29
2023-03-10T03:38:13.078Z,978.28
2023-03-10T03:39:13.791Z,978.31
2023-03-10T03:40:13.454Z,978.35
2023-03-10T03:41:13.614Z,978.27
2023-03-10T03:42:13.762Z,978.26
2023-03-10T03:43:14.879Z,978.29
2023-03-10T03:44:14.135Z,978.28
2023-03-10T03:45:14.297Z,978.30
2023-03-10T03:46:15.025Z,978.44
2023-03-10T03:47:15.380Z,978.36
2023-03-10T03:48:14.803Z,978.37
2023-03-10T03:49:14.979Z,978.33
2023-03-10T03:50:15.184Z,978.35
2023-03-10T03:51:15.390Z,978.34
2023-03-10T03:52:16.570Z,978.35
2023-03-10T03:53:17.406Z,978.34
2023-03-10T03:54:15.919Z,978.42
2023-03-10T03:55:16.092Z,978.37
2023-03-10T03:56:16.259Z,978.36
2023-03-10T03:57:16.440Z,978.36
2023-03-10T03:58:16.652Z,978.34
2023-03-10T03:59:17.424Z,978.36
2023-03-10T04:00:17.429Z,978.35
2023-03-10T04:01:17.115Z,978.35
2023-03-10T04:02:17.347Z,978.28
2023-03-10T04:03:17.483Z,978.35
2023-03-10T04:04:18.408Z,978.43
2023-03-10T04:05:18.415Z,978.38
2023-03-10T04:06:18.870Z,978.41
2023-03-10T04:07:18.002Z,978.42
2023-03-10T04:08:18.174Z,978.30
2023-03-10T04:09:18.428Z,978.39
2023-03-10T04:10:18.532Z,978.35
2023-03-10T04:11:19.370Z,978.38
2023-03-10T04:12:19.883Z,978.38
2023-03-10T04:13:19.060Z,978.29
2023-03-10T04:14:20.360Z,978.25
2023-03-10T04:15:20.430Z,978.35
2023-03-10T04:16:19.654Z,978.27
2023-03-10T04:17:21.872Z,978.36
2023-03-10T04:18:21.876Z,978.32
2023-03-10T04:19:20.876Z,978.34
2023-03-10T04:20:20.931Z,978.39
2023-03-10T04:21:20.909Z,978.39
2023-03-10T04:22:21.426Z,978.32
2023-03-10T04:23:20.725Z,978.40
2023-03-10T04:24:20.937Z,978.41
2023-03-10T04:25:21.132Z,978.41
2023-03-10T04:26:21.355Z,978.29
2023-03-10T04:27:21.530Z,978.35
2023-03-10T04:28:22.884Z,978.37
2023-03-10T04:29:21.961Z,978.32
2023-03-10T04:30:22.215Z,978.22
2023-03-10T04:31:22.592Z,978.22
2023-03-10T04:32:22.519Z,978.10
2023-03-10T04:33:22.693Z,978.24
2023-03-10T04:34:22.882Z,978.18
2023-03-10T04:35:23.879Z,978.28
2023-03-10T04:36:24.372Z,978.22
2023-03-10T04:37:23.422Z,978.26
2023-03-10T04:38:23.623Z,978.21
2023-03-10T04:39:23.843Z,978.24
2023-03-10T04:40:24.066Z,978.28
2023-03-10T04:41:24.866Z,978.23
2023-03-10T04:42:24.430Z,978.24
2023-03-10T04:43:24.652Z,978.25
2023-03-10T04:44:30.971Z,978.31
2023-03-10T04:45:27.041Z,978.30
2023-03-10T04:46:25.314Z,978.30
2023-03-10T04:47:25.437Z,978.30
2023-03-10T04:48:25.657Z,978.28
2023-03-10T04:49:26.796Z,978.25
2023-03-10T04:50:26.009Z,978.25
2023-03-10T04:51:27.382Z,978.18
2023-03-10T04:52:26.930Z,978.24
2023-03-10T04:53:26.633Z,978.26
2023-03-10T04:54:26.947Z,978.25
2023-03-10T04:55:27.743Z,978.26
2023-03-10T04:56:27.928Z,978.25
2023-03-10T04:57:27.435Z,978.33
2023-03-10T04:58:29.384Z,978.19
2023-03-10T04:59:28.389Z,978.26
2023-03-10T05:00:28.514Z,978.16
2023-03-10T05:01:27.996Z,978.18
2023-03-10T05:02:28.930Z,978.07
2023-03-10T05:03:28.888Z,978.15
2023-03-10T05:04:28.596Z,978.08
2023-03-10T05:05:28.828Z,978.17
2023-03-10T05:06:29.780Z,978.09
2023-03-10T05:07:28.966Z,978.20
2023-03-10T05:08:29.941Z,978.10
2023-03-10T05:09:29.366Z,978.20
2023-03-10T05:10:30.536Z,978.16
2023-03-10T05:11:29.677Z,978.02
2023-03-10T05:12:31.937Z,978.09
2023-03-10T05:13:32.050Z,978.07
2023-03-10T05:14:31.322Z,978.12
2023-03-10T05:15:31.407Z,978.13
2023-03-10T05:16:31.478Z,978.17
2023-03-10T05:17:30.913Z,978.13
2023-03-10T05:18:33.393Z,978.05
2023-03-10T05:19:31.883Z,978.12
2023-03-10T05:20:32.393Z,978.07
2023-03-10T05:21:31.930Z,978.13
2023-03-10T05:22:31.727Z,978.13
2023-03-10T05:23:32.433Z,978.13
2023-03-10T05:24:32.095Z,978.20
2023-03-10T05:25:32.295Z,978.14
2023-03-10T05:26:34.795Z,978.09
2023-03-10T05:27:33.624Z,978.12
2023-03-10T05:28:32.948Z,978.16
2023-03-10T05:29:33.030Z,978.10
2023-03-10T05:30:33.951Z,978.11
2023-03-10T05:31:33.404Z,978.12
2023-03-10T05:32:33.546Z,978.12
2023-03-10T05:33:33.620Z,978.12
2023-03-10T05:34:33.797Z,978.14
2023-03-10T05:35:34.996Z,978.17
2023-03-10T05:36:34.134Z,978.13
2023-03-10T05:37:34.326Z,978.07
2023-03-10T05:38:35.407Z,978.14
2023-03-10T05:39:34.685Z,978.07
2023-03-10T05:40:34.871Z,978.05
2023-03-10T05:41:35.963Z,978.08
2023-03-10T05:42:35.457Z,978.12
2023-03-10T05:43:35.405Z,977.99
2023-03-10T05:44:36.435Z,978.08
2023-03-10T05:45:35.726Z,978.00
2023-03-10T05:46:35.997Z,978.00
2023-03-10T05:47:36.146Z,978.00
2023-03-10T05:48:36.359Z,978.00
2023-03-10T05:49:38.641Z,977.93
2023-03-10T05:50:38.477Z,977.92
2023-03-10T05:51:36.813Z,978.03
2023-03-10T05:52:37.000Z,977.95
2023-03-10T05:53:38.901Z,977.99
2023-03-10T05:54:37.416Z,977.95
2023-03-10T05:55:38.913Z,977.99
2023-03-10T05:56:37.967Z,978.03
2023-03-10T05:57:40.256Z,977.95
2023-03-10T05:58:38.897Z,977.93
2023-03-10T05:59:38.899Z,977.96
2023-03-10T06:00:39.437Z,977.96
2023-03-10T06:01:38.623Z,977.92
2023-03-10T06:02:38.836Z,977.96
2023-03-10T06:03:39.112Z,977.98
2023-03-10T06:04:39.206Z,977.96
2023-03-10T06:05:39.395Z,977.95
2023-03-10T06:06:40.404Z,977.99
2023-03-10T06:07:40.452Z,978.01
2023-03-10T06:08:40.010Z,977.93
2023-03-10T06:09:40.210Z,977.89
2023-03-10T06:10:41.396Z,977.93
2023-03-10T06:11:40.951Z,977.90
2023-03-10T06:12:42.261Z,977.86
2023-03-10T06:13:40.959Z,977.85
2023-03-10T06:14:41.065Z,977.88
2023-03-10T06:15:41.944Z,977.82
2023-03-10T06:16:42.990Z,977.81
2023-03-10T06:17:41.560Z,977.85
2023-03-10T06:18:41.788Z,977.83
2023-03-10T06:19:41.971Z,977.68
2023-03-10T06:20:42.154Z,977.71
2023-03-10T06:21:44.350Z,977.71
2023-03-10T06:22:43.459Z,977.64
2023-03-10T06:23:43.506Z,977.63
2023-03-10T06:24:43.764Z,977.65
2023-03-10T06:25:43.024Z,977.61
2023-03-10T06:26:43.196Z,977.55
2023-03-10T06:27:44.403Z,977.53
2023-03-10T06:28:43.540Z,977.61
2023-03-10T06:29:44.409Z,977.52
2023-03-10T06:30:45.413Z,977.52
2023-03-10T06:31:44.235Z,977.58
2023-03-10T06:32:44.964Z,977.53
2023-03-10T06:33:44.611Z,977.54
2023-03-10T06:34:44.776Z,977.51
2023-03-10T06:35:45.033Z,977.49
2023-03-10T06:36:45.063Z,977.58
2023-03-10T06:37:45.207Z,977.54
2023-03-10T06:38:46.924Z,977.55
2023-03-10T06:39:45.526Z,977.59
2023-03-10T06:40:45.713Z,977.49
2023-03-10T06:41:45.876Z,977.49
2023-03-10T06:42:47.910Z,977.52
2023-03-10T06:43:46.263Z,977.54
2023-03-10T06:44:49.202Z,977.56
2023-03-10T06:45:48.538Z,977.60
2023-03-10T06:46:46.958Z,977.59
2023-03-10T06:47:47.907Z,977.61
2023-03-10T06:48:47.951Z,977.58
2023-03-10T06:49:47.902Z,977.53
2023-03-10T06:50:48.271Z,977.52
2023-03-10T06:51:47.620Z,977.54
2023-03-10T06:52:47.765Z,977.56
2023-03-10T06:53:47.884Z,977.51
2023-03-10T06:54:48.037Z,977.54
2023-03-10T06:55:48.217Z,977.56
2023-03-10T06:56:48.911Z,977.46
2023-03-10T06:57:49.416Z,977.50
2023-03-10T06:58:48.652Z,977.49
2023-03-10T06:59:49.775Z,977.52
2023-03-10T07:00:49.089Z,977.57
2023-03-10T07:01:49.956Z,977.60
2023-03-10T07:02:49.915Z,977.66
2023-03-10T07:03:49.626Z,977.62
2023-03-10T07:04:50.545Z,977.70
2023-03-10T07:05:49.986Z,977.71
2023-03-10T07:06:50.144Z,977.71
2023-03-10T07:07:50.317Z,977.71
2023-03-10T07:08:51.408Z,977.71
2023-03-10T07:09:50.672Z,977.74
2023-03-10T07:10:51.842Z,977.74
2023-03-10T07:11:52.908Z,977.75
2023-03-10T07:12:51.466Z,977.78
2023-03-10T07:13:51.495Z,977.83
2023-03-10T07:14:51.644Z,977.79
2023-03-10T07:15:51.822Z,977.80
2023-03-10T07:16:52.085Z,977.82
2023-03-10T07:17:52.227Z,977.78
2023-03-10T07:18:52.958Z,977.90
2023-03-10T07:19:53.408Z,977.86
2023-03-10T07:20:52.801Z,977.98
2023-03-10T07:21:52.965Z,977.88
2023-03-10T07:22:54.438Z,977.85
2023-03-10T07:23:53.954Z,977.86
2023-03-10T07:24:53.460Z,977.83
2023-03-10T07:25:54.913Z,977.90
2023-03-10T07:26:54.409Z,977.81
2023-03-10T07:27:55.408Z,977.90
2023-03-10T07:28:54.167Z,977.87
2023-03-10T07:29:54.348Z,977.81
2023-03-10T07:30:55.565Z,977.84
2023-03-10T07:31:55.277Z,977.85
2023-03-10T07:32:55.066Z,977.87
2023-03-10T07:33:55.959Z,977.84
2023-03-10T07:34:55.233Z,977.87
2023-03-10T07:35:55.409Z,977.83
2023-03-10T07:36:55.645Z,977.74
2023-03-10T07:37:55.840Z,977.71
2023-03-10T07:38:56.981Z,977.72
2023-03-10T07:39:56.952Z,977.68
2023-03-10T07:40:56.501Z,977.77
2023-03-10T07:41:56.715Z,977.78
2023-03-10T07:42:57.915Z,977.75
2023-03-10T07:43:57.035Z,977.85
2023-03-10T07:44:57.972Z,977.77
2023-03-10T07:45:58.002Z,977.82
2023-03-10T07:46:57.976Z,977.85
2023-03-10T07:47:57.749Z,977.73
2023-03-10T07:48:58.792Z,977.70
2023-03-10T07:49:58.172Z,977.58
2023-03-10T07:50:58.307Z,977.44
2023-03-10T07:51:58.970Z,977.36
2023-03-10T07:52:59.426Z,977.32
2023-03-10T07:54:00.425Z,977.26
2023-03-10T07:54:59.043Z,977.27
2023-03-10T07:56:00.428Z,977.26
2023-03-10T07:56:59.511Z,977.37
2023-03-10T07:58:00.484Z,977.42
2023-03-10T07:58:59.876Z,977.43
2023-03-10T08:00:00.055Z,977.39
2023-03-10T08:01:00.241Z,977.42
2023-03-10T08:02:00.393Z,977.50
2023-03-10T08:03:01.422Z,977.39
2023-03-10T08:04:00.821Z,977.34
2023-03-10T08:05:00.854Z,977.34
2023-03-10T08:06:00.966Z,977.41
2023-03-10T08:07:01.121Z,977.34
2023-03-10T08:08:01.929Z,977.34
2023-03-10T08:09:01.459Z,977.47
2023-03-10T08:10:01.665Z,977.36
2023-03-10T08:11:01.815Z,977.37
2023-03-10T08:12:01.982Z,977.29
2023-03-10T08:13:02.928Z,977.26
2023-03-10T08:14:03.975Z,977.28
2023-03-10T08:15:36.659Z,977.14
2023-03-10T08:16:03.540Z,977.19
2023-03-10T08:17:02.804Z,977.27
2023-03-10T08:18:02.950Z,977.20
2023-03-10T08:19:05.826Z,977.22
2023-03-10T08:20:03.359Z,977.22
2023-03-10T08:21:04.035Z,977.24
2023-03-10T08:22:05.466Z,977.27
2023-03-10T08:23:04.509Z,977.20
2023-03-10T08:24:04.027Z,977.21
2023-03-10T08:25:04.978Z,977.23
2023-03-10T08:26:04.374Z,977.18
2023-03-10T08:27:05.481Z,977.06
2023-03-10T08:28:05.506Z,977.06
2023-03-10T08:29:06.329Z,977.04
2023-03-10T08:30:05.079Z,977.01
2023-03-10T08:31:05.643Z,977.00
2023-03-10T08:32:06.510Z,977.04
2023-03-10T08:33:05.665Z,976.97
2023-03-10T08:34:05.779Z,976.70
2023-03-10T08:35:05.972Z,976.57
2023-03-10T08:36:07.061Z,976.56
2023-03-10T08:37:07.006Z,976.65
2023-03-10T08:38:06.536Z,976.60
2023-03-10T08:39:08.473Z,976.57
2023-03-10T08:40:06.858Z,976.53
2023-03-10T08:41:08.047Z,976.53
2023-03-10T08:42:07.228Z,976.56
2023-03-10T08:43:08.015Z,976.57
2023-03-10T08:44:07.519Z,976.49
2023-03-10T08:45:08.814Z,976.49
2023-03-10T08:46:09.085Z,976.37
2023-03-10T08:47:09.123Z,976.36
2023-03-10T08:48:08.280Z,976.23
2023-03-10T08:49:08.408Z,976.16
2023-03-10T08:50:08.594Z,975.90
2023-03-10T08:51:08.749Z,975.80
2023-03-10T08:52:09.513Z,975.65
2023-03-10T08:53:10.026Z,975.56
2023-03-10T08:54:10.016Z,975.17
2023-03-10T08:55:10.336Z,974.97
2023-03-10T08:56:09.610Z,974.89
2023-03-10T08:57:09.780Z,974.29
2023-03-10T08:58:10.046Z,974.48
2023-03-10T08:59:10.121Z,974.70
2023-03-10T09:00:10.311Z,974.71
2023-03-10T09:01:11.563Z,974.69
2023-03-10T09:02:10.790Z,974.70
2023-03-10T09:03:10.939Z,974.80
2023-03-10T09:04:11.057Z,974.97
2023-03-10T09:05:11.979Z,975.03
2023-03-10T09:06:11.389Z,975.13
2023-03-10T09:07:12.519Z,975.14
2023-03-10T09:08:11.852Z,974.91
2023-03-10T09:09:12.046Z,974.95
2023-03-10T09:10:12.236Z,974.98
2023-03-10T09:11:13.019Z,974.67
2023-03-10T09:12:14.532Z,974.27
2023-03-10T09:13:14.288Z,974.05
2023-03-10T09:14:16.676Z,974.11
2023-03-10T09:15:14.146Z,974.04
2023-03-10T09:16:14.041Z,974.10
2023-03-10T09:17:14.984Z,974.17
2023-03-10T09:18:13.735Z,974.25
2023-03-10T09:19:13.898Z,974.36
2023-03-10T09:20:14.062Z,974.51
2023-03-10T09:21:14.249Z,974.63
2023-03-10T09:22:14.411Z,974.70
2023-03-10T09:23:14.597Z,974.86
2023-03-10T09:24:14.755Z,975.01
2023-03-10T09:25:14.905Z,975.22
2023-03-10T09:26:15.093Z,975.41
2023-03-10T09:27:15.248Z,975.48
2023-03-10T09:28:18.246Z,975.63
2023-03-10T09:29:17.565Z,975.72
2023-03-10T09:30:16.487Z,975.91
2023-03-10T09:31:16.136Z,975.96
2023-03-10T09:32:17.150Z,976.05
2023-03-10T09:33:16.230Z,976.01
2023-03-10T09:34:17.027Z,976.10
2023-03-10T09:35:16.544Z,976.07
2023-03-10T09:36:18.668Z,976.08
2023-03-10T09:37:17.541Z,976.10
2023-03-10T09:38:17.988Z,976.08
2023-03-10T09:39:18.033Z,976.16
2023-03-10T09:40:18.001Z,976.11
2023-03-10T09:41:18.530Z,976.24
2023-03-10T09:42:25.480Z,976.33
2023-03-10T09:43:20.508Z,976.34
2023-03-10T09:44:18.115Z,976.42
2023-03-10T09:45:19.030Z,976.49
2023-03-10T09:46:18.499Z,976.51
2023-03-10T09:47:20.113Z,976.65
2023-03-10T09:48:19.801Z,976.63
2023-03-10T09:49:18.981Z,976.69
2023-03-10T09:50:20.037Z,976.65
2023-03-10T09:51:19.311Z,976.62
2023-03-10T09:52:19.477Z,976.62
2023-03-10T09:53:19.666Z,976.66
2023-03-10T09:54:19.834Z,976.57
2023-03-10T09:55:19.984Z,976.58
2023-03-10T09:56:20.149Z,976.55
2023-03-10T09:57:20.335Z,976.53
2023-03-10T09:58:20.551Z,976.43
2023-03-10T09:59:20.733Z,976.41
2023-03-10T10:00:21.497Z,976.36
2023-03-10T10:01:21.111Z,976.31
2023-03-10T10:02:22.044Z,976.32
2023-03-10T10:03:21.474Z,976.27
2023-03-10T10:04:21.796Z,976.31
2023-03-10T10:05:21.778Z,976.26
2023-03-10T10:06:21.923Z,976.24
2023-03-10T10:07:22.111Z,976.14
2023-03-10T10:08:22.269Z,976.05
2023-03-10T10:09:22.445Z,976.05
2023-03-10T10:10:23.998Z,976.07
2023-03-10T10:11:23.492Z,976.10
2023-03-10T10:12:22.922Z,976.02
2023-03-10T10:13:23.107Z,976.08
2023-03-10T10:14:31.693Z,976.09
2023-03-10T10:15:26.497Z,976.11
2023-03-10T10:16:33.884Z,976.18
2023-03-10T10:17:26.599Z,976.18
2023-03-10T10:18:25.999Z,976.24
2023-03-10T10:19:25.180Z,976.39
2023-03-10T10:20:24.328Z,976.40
2023-03-10T10:21:28.161Z,976.45
2023-03-10T10:22:27.364Z,976.49
2023-03-10T10:23:25.500Z,976.54
2023-03-10T10:24:26.505Z,976.65
2023-03-10T10:25:26.041Z,976.72
2023-03-10T10:26:25.550Z,976.79
2023-03-10T10:27:27.013Z,976.72
2023-03-10T10:28:25.904Z,976.83
2023-03-10T10:29:26.081Z,976.77
2023-03-10T10:30:28.576Z,976.86
2023-03-10T10:31:26.628Z,976.83
2023-03-10T10:32:26.693Z,976.86
2023-03-10T10:33:26.880Z,976.84
2023-03-10T10:34:27.022Z,976.87
2023-03-10T10:35:27.199Z,976.87
2023-03-10T10:36:27.402Z,976.81
2023-03-10T10:37:28.520Z,976.83
2023-03-10T10:38:27.789Z,976.82
2023-03-10T10:39:28.394Z,976.83
2023-03-10T10:40:30.047Z,976.81
2023-03-10T10:41:29.506Z,976.83
2023-03-10T10:42:29.045Z,976.76
2023-03-10T10:43:29.427Z,976.67
2023-03-10T10:44:30.505Z,976.71
2023-03-10T10:45:30.005Z,976.56
2023-03-10T10:46:30.077Z,976.42
2023-03-10T10:47:29.430Z,976.46
2023-03-10T10:48:29.621Z,976.46
2023-03-10T10:49:29.812Z,976.42
2023-03-10T10:50:29.998Z,976.42
2023-03-10T10:51:30.212Z,976.43
2023-03-10T10:52:30.561Z,976.39
2023-03-10T10:53:31.054Z,976.35
2023-03-10T10:54:31.063Z,976.37
2023-03-10T10:55:30.870Z,976.38
2023-03-10T10:56:31.053Z,976.43
2023-03-10T10:57:31.253Z,976.41
2023-03-10T10:58:33.015Z,976.40
2023-03-10T10:59:31.660Z,976.47
2023-03-10T11:00:32.073Z,976.41
2023-03-10T11:01:32.615Z,976.42
2023-03-10T11:02:32.253Z,976.44
2023-03-10T11:03:33.237Z,976.37
2023-03-10T11:04:33.480Z,976.38
2023-03-10T11:05:32.681Z,976.26
2023-03-10T11:06:34.018Z,976.28
2023-03-10T11:07:34.018Z,976.26
2023-03-10T11:08:33.178Z,976.23
2023-03-10T11:09:34.019Z,976.16
2023-03-10T11:10:34.521Z,976.09
2023-03-10T11:11:35.020Z,976.07
2023-03-10T11:12:34.521Z,976.10
2023-03-10T11:13:36.025Z,976.02
2023-03-10T11:14:35.886Z,976.01
2023-03-10T11:15:34.600Z,975.99
2023-03-10T11:16:35.520Z,976.00
2023-03-10T11:17:35.526Z,975.93
2023-03-10T11:18:35.067Z,975.95
2023-03-10T11:19:35.265Z,975.84
2023-03-10T11:20:36.061Z,975.71
2023-03-10T11:21:35.605Z,975.76
2023-03-10T11:22:36.079Z,975.64
2023-03-10T11:23:36.032Z,975.62
2023-03-10T11:24:38.044Z,975.63
2023-03-10T11:25:37.026Z,975.66
2023-03-10T11:26:37.529Z,975.66
2023-03-10T11:27:36.712Z,975.71
2023-03-10T11:28:37.563Z,975.67
2023-03-10T11:29:37.134Z,975.70
2023-03-10T11:30:38.071Z,975.69
2023-03-10T11:31:37.347Z,975.70
2023-03-10T11:32:38.133Z,975.70
2023-03-10T11:33:37.718Z,975.70
2023-03-10T11:34:37.899Z,975.61
2023-03-10T11:35:38.122Z,975.61
2023-03-10T11:36:49.562Z,975.58
2023-03-10T11:37:41.046Z,975.50
2023-03-10T11:38:39.079Z,975.47
2023-03-10T11:39:39.578Z,975.29
2023-03-10T11:40:39.113Z,975.26
2023-03-10T11:41:39.283Z,975.18
2023-03-10T11:42:39.466Z,975.11
2023-03-10T11:43:39.650Z,975.03
2023-03-10T11:44:40.569Z,975.00
2023-03-10T11:45:39.984Z,974.92
2023-03-10T11:46:41.631Z,975.00
2023-03-10T11:47:41.958Z,975.07
2023-03-10T11:48:41.681Z,975.04
2023-03-10T11:49:40.841Z,975.09
2023-03-10T11:50:41.584Z,975.07
2023-03-10T11:51:41.278Z,975.15
2023-03-10T11:52:41.437Z,975.11
2023-03-10T11:53:41.613Z,975.10
2023-03-10T11:54:42.816Z,975.19
2023-03-10T11:55:42.577Z,975.18
2023-03-10T11:56:43.219Z,975.21
2023-03-10T11:57:42.409Z,975.17
2023-03-10T11:58:43.541Z,975.19
2023-03-10T11:59:42.831Z,975.25
2023-03-10T12:00:43.527Z,975.25
2023-03-10T12:01:43.200Z,975.19
2023-03-10T12:02:43.621Z,975.18
2023-03-10T12:03:43.589Z,975.27
2023-03-10T12:04:44.580Z,975.28
2023-03-10T12:05:44.654Z,975.34
2023-03-10T12:06:44.187Z,975.31
2023-03-10T12:07:44.386Z,975.35
2023-03-10T12:08:44.549Z,975.33
2023-03-10T12:09:44.718Z,975.40
2023-03-10T12:10:44.915Z,975.41
2023-03-10T12:11:45.063Z,975.50
2023-03-10T12:12:45.240Z,975.51
2023-03-10T12:13:45.410Z,975.52
2023-03-10T12:14:46.076Z,975.51
2023-03-10T12:15:45.791Z,975.50
2023-03-10T12:16:46.099Z,975.48
2023-03-10T12:17:48.040Z,975.50
2023-03-10T12:18:46.310Z,975.50
2023-03-10T12:19:46.515Z,975.46
2023-03-10T12:20:48.548Z,975.45
2023-03-10T12:21:48.543Z,975.50
2023-03-10T12:22:48.080Z,975.49
2023-03-10T12:23:49.554Z,975.52
2023-03-10T12:24:47.609Z,975.54
2023-03-10T12:25:47.809Z,975.60
2023-03-10T12:26:48.019Z,975.66
2023-03-10T12:27:49.221Z,975.78
2023-03-10T12:28:49.078Z,975.74
2023-03-10T12:29:49.095Z,975.84
2023-03-10T12:30:49.402Z,975.93